CSAPA KX21-KORL
Flight info
| Callsign | CSAPA |
|---|---|
| Flight time | 0h 22m |
| Altitude | 1500 |
| Route | VFR W |
| Aircraft | C152/L-V/N |
Departure
| Time | 2026-05-05 00:26 |
|---|---|
| Airport | Arthur Dunn Air Park (KX21) |
Arrival
| Time | 2026-05-05 00:48 |
|---|---|
| Airport | Orlando Executive Airport (KORL) |
| Time | Latitude | Longitude | Altitude | Speed | Heading |
|---|---|---|---|---|---|
| 2026-05-05 00:19 | 28.61999 | -80.83265 | 33 ft | 0 kts | 0° |
| 2026-05-05 00:20 | 28.62006 | -80.83277 | 33 ft | 3 kts | 270° |
| 2026-05-05 00:20 | 28.61981 | -80.83285 | 33 ft | 4 kts | 194° |
| 2026-05-05 00:21 | 28.61974 | -80.83327 | 33 ft | 8 kts | 263° |
| 2026-05-05 00:21 | 28.61971 | -80.83349 | 33 ft | 2 kts | 263° |
| 2026-05-05 00:21 | 28.61971 | -80.83352 | 33 ft | 1 kts | 263° |
| 2026-05-05 00:21 | 28.61966 | -80.83373 | 33 ft | 1 kts | 246° |
| 2026-05-05 00:22 | 28.61966 | -80.83374 | 33 ft | 0 kts | 246° |
| 2026-05-05 00:22 | 28.61964 | -80.83378 | 33 ft | 2 kts | 246° |
| 2026-05-05 00:22 | 28.61959 | -80.83401 | 33 ft | 3 kts | 261° |
| 2026-05-05 00:23 | 28.61958 | -80.83413 | 33 ft | 0 kts | 261° |
| 2026-05-05 00:24 | 28.61954 | -80.83442 | 33 ft | 9 kts | 270° |
| 2026-05-05 00:25 | 28.62041 | -80.83505 | 33 ft | 39 kts | 336° |
| 2026-05-05 00:25 | 28.62418 | -80.83701 | 112 ft | 70 kts | 335° |
| 2026-05-05 00:25 | 28.62851 | -80.83926 | 375 ft | 66 kts | 334° |
| 2026-05-05 00:25 | 28.63274 | -80.84164 | 564 ft | 74 kts | 324° |
| 2026-05-05 00:26 | 28.63472 | -80.84719 | 725 ft | 83 kts | 261° |
| 2026-05-05 00:26 | 28.63264 | -80.85303 | 967 ft | 75 kts | 244° |
| 2026-05-05 00:26 | 28.62802 | -80.85597 | 1068 ft | 84 kts | 178° |
| 2026-05-05 00:26 | 28.62274 | -80.85387 | 1305 ft | 77 kts | 156° |
| 2026-05-05 00:27 | 28.61766 | -80.85125 | 1445 ft | 81 kts | 154° |
| 2026-05-05 00:27 | 28.61225 | -80.84986 | 1552 ft | 87 kts | 187° |
| 2026-05-05 00:27 | 28.60673 | -80.85328 | 1583 ft | 96 kts | 226° |
| 2026-05-05 00:27 | 28.60360 | -80.86009 | 1572 ft | 99 kts | 253° |
| 2026-05-05 00:28 | 28.60183 | -80.86756 | 1562 ft | 98 kts | 256° |
| 2026-05-05 00:28 | 28.60057 | -80.87493 | 1587 ft | 94 kts | 260° |
| 2026-05-05 00:28 | 28.59934 | -80.88277 | 1513 ft | 103 kts | 259° |
| 2026-05-05 00:28 | 28.59789 | -80.89088 | 1468 ft | 106 kts | 258° |
| 2026-05-05 00:29 | 28.59654 | -80.89904 | 1446 ft | 105 kts | 259° |
| 2026-05-05 00:29 | 28.59528 | -80.90722 | 1426 ft | 105 kts | 261° |
| 2026-05-05 00:29 | 28.59434 | -80.91539 | 1442 ft | 102 kts | 263° |
| 2026-05-05 00:29 | 28.59353 | -80.92350 | 1436 ft | 104 kts | 264° |
| 2026-05-05 00:30 | 28.59275 | -80.93169 | 1452 ft | 102 kts | 264° |
| 2026-05-05 00:30 | 28.59194 | -80.93976 | 1444 ft | 104 kts | 263° |
| 2026-05-05 00:30 | 28.59108 | -80.94777 | 1474 ft | 102 kts | 263° |
| 2026-05-05 00:30 | 28.59019 | -80.95583 | 1472 ft | 103 kts | 263° |
| 2026-05-05 00:31 | 28.58925 | -80.96383 | 1488 ft | 102 kts | 262° |
| 2026-05-05 00:31 | 28.58822 | -80.97183 | 1492 ft | 102 kts | 261° |
| 2026-05-05 00:31 | 28.58709 | -80.97984 | 1502 ft | 102 kts | 260° |
| 2026-05-05 00:31 | 28.58585 | -80.98771 | 1509 ft | 102 kts | 259° |
| 2026-05-05 00:32 | 28.58444 | -80.99576 | 1516 ft | 102 kts | 258° |
| 2026-05-05 00:32 | 28.58293 | -81.00357 | 1523 ft | 102 kts | 257° |
| 2026-05-05 00:32 | 28.58159 | -81.01165 | 1521 ft | 103 kts | 262° |
| 2026-05-05 00:32 | 28.58091 | -81.01966 | 1528 ft | 103 kts | 266° |
| 2026-05-05 00:33 | 28.58069 | -81.02777 | 1533 ft | 103 kts | 269° |
| 2026-05-05 00:33 | 28.58095 | -81.03592 | 1534 ft | 103 kts | 273° |
| 2026-05-05 00:33 | 28.58179 | -81.04401 | 1527 ft | 104 kts | 284° |
| 2026-05-05 00:33 | 28.58412 | -81.05171 | 1544 ft | 102 kts | 289° |
| 2026-05-05 00:34 | 28.58639 | -81.05938 | 1548 ft | 103 kts | 288° |
| 2026-05-05 00:34 | 28.58848 | -81.06716 | 1552 ft | 103 kts | 286° |
| 2026-05-05 00:34 | 28.59038 | -81.07500 | 1558 ft | 103 kts | 284° |
| 2026-05-05 00:34 | 28.59208 | -81.08290 | 1561 ft | 103 kts | 283° |
| 2026-05-05 00:35 | 28.59360 | -81.09086 | 1534 ft | 105 kts | 282° |
| 2026-05-05 00:35 | 28.59501 | -81.09881 | 1565 ft | 102 kts | 281° |
| 2026-05-05 00:35 | 28.59634 | -81.10697 | 1515 ft | 106 kts | 280° |
| 2026-05-05 00:35 | 28.59753 | -81.11510 | 1536 ft | 103 kts | 279° |
| 2026-05-05 00:36 | 28.59860 | -81.12323 | 1515 ft | 105 kts | 278° |
| 2026-05-05 00:36 | 28.59945 | -81.13143 | 1516 ft | 104 kts | 276° |
| 2026-05-05 00:36 | 28.60010 | -81.13961 | 1507 ft | 104 kts | 274° |
| 2026-05-05 00:36 | 28.60055 | -81.14786 | 1501 ft | 104 kts | 273° |
| 2026-05-05 00:37 | 28.60079 | -81.15609 | 1493 ft | 104 kts | 270° |
| 2026-05-05 00:37 | 28.60034 | -81.16430 | 1487 ft | 104 kts | 265° |
| 2026-05-05 00:37 | 28.59979 | -81.17250 | 1476 ft | 104 kts | 265° |
| 2026-05-05 00:37 | 28.59920 | -81.18071 | 1469 ft | 104 kts | 265° |
| 2026-05-05 00:38 | 28.59857 | -81.18883 | 1460 ft | 104 kts | 264° |
| 2026-05-05 00:38 | 28.59787 | -81.19703 | 1453 ft | 104 kts | 264° |
| 2026-05-05 00:38 | 28.59707 | -81.20524 | 1445 ft | 104 kts | 263° |
| 2026-05-05 00:38 | 28.59616 | -81.21342 | 1438 ft | 104 kts | 262° |
| 2026-05-05 00:39 | 28.59514 | -81.22157 | 1430 ft | 104 kts | 261° |
| 2026-05-05 00:39 | 28.59420 | -81.22974 | 1425 ft | 104 kts | 263° |
| 2026-05-05 00:39 | 28.59326 | -81.23790 | 1419 ft | 104 kts | 262° |
| 2026-05-05 00:39 | 28.59240 | -81.24606 | 1414 ft | 104 kts | 265° |
| 2026-05-05 00:40 | 28.59196 | -81.25423 | 1416 ft | 103 kts | 266° |
| 2026-05-05 00:40 | 28.59057 | -81.26230 | 1399 ft | 104 kts | 253° |
| 2026-05-05 00:40 | 28.58813 | -81.27005 | 1330 ft | 106 kts | 249° |
| 2026-05-05 00:40 | 28.58551 | -81.27759 | 1179 ft | 100 kts | 248° |
| 2026-05-05 00:41 | 28.58286 | -81.28491 | 1071 ft | 101 kts | 247° |
| 2026-05-05 00:41 | 28.58005 | -81.29219 | 1047 ft | 99 kts | 245° |
| 2026-05-05 00:41 | 28.57711 | -81.29921 | 1030 ft | 99 kts | 243° |
| 2026-05-05 00:41 | 28.57406 | -81.30611 | 1012 ft | 98 kts | 243° |
| 2026-05-05 00:42 | 28.57100 | -81.31303 | 993 ft | 98 kts | 243° |
| 2026-05-05 00:42 | 28.56784 | -81.31988 | 981 ft | 97 kts | 243° |
| 2026-05-05 00:42 | 28.56460 | -81.32661 | 972 ft | 97 kts | 241° |
| 2026-05-05 00:42 | 28.56153 | -81.33350 | 967 ft | 96 kts | 252° |
| 2026-05-05 00:43 | 28.56228 | -81.34073 | 982 ft | 95 kts | 299° |
| 2026-05-05 00:43 | 28.56722 | -81.34532 | 1009 ft | 93 kts | 341° |
| 2026-05-05 00:43 | 28.57356 | -81.34508 | 1017 ft | 93 kts | 22° |
| 2026-05-05 00:43 | 28.57815 | -81.33997 | 998 ft | 96 kts | 65° |
| 2026-05-05 00:44 | 28.57866 | -81.33268 | 1007 ft | 95 kts | 105° |
| 2026-05-05 00:44 | 28.57472 | -81.32682 | 1012 ft | 94 kts | 149° |
| 2026-05-05 00:44 | 28.56854 | -81.32601 | 1041 ft | 92 kts | 197° |
| 2026-05-05 00:44 | 28.56358 | -81.33045 | 1040 ft | 92 kts | 236° |
| 2026-05-05 00:45 | 28.56068 | -81.33679 | 1038 ft | 89 kts | 245° |
| 2026-05-05 00:45 | 28.55807 | -81.34309 | 1014 ft | 88 kts | 245° |
| 2026-05-05 00:45 | 28.55556 | -81.34945 | 981 ft | 88 kts | 246° |
| 2026-05-05 00:45 | 28.55319 | -81.35582 | 929 ft | 87 kts | 247° |
| 2026-05-05 00:46 | 28.54961 | -81.36126 | 857 ft | 89 kts | 206° |
| 2026-05-05 00:46 | 28.54368 | -81.36078 | 785 ft | 89 kts | 146° |
| 2026-05-05 00:46 | 28.53984 | -81.35601 | 776 ft | 68 kts | 129° |
| 2026-05-05 00:46 | 28.53844 | -81.35150 | 663 ft | 55 kts | 90° |
| 2026-05-05 00:47 | 28.53959 | -81.34758 | 512 ft | 56 kts | 61° |
| 2026-05-05 00:47 | 28.54147 | -81.34289 | 343 ft | 69 kts | 66° |
| 2026-05-05 00:47 | 28.54346 | -81.33769 | 186 ft | 71 kts | 66° |
| 2026-05-05 00:47 | 28.54524 | -81.33296 | 117 ft | 55 kts | 66° |
| 2026-05-05 00:48 | 28.54647 | -81.32979 | 116 ft | 31 kts | 66° |
| 2026-05-05 00:48 | 28.54708 | -81.32822 | 116 ft | 20 kts | 61° |
| 2026-05-05 00:48 | 28.54813 | -81.32743 | 116 ft | 16 kts | 15° |
| 2026-05-05 00:48 | 28.54854 | -81.32731 | 116 ft | 0 kts | 15° |
| 2026-05-05 00:49 | 28.54854 | -81.32730 | 116 ft | 0 kts | 15° |
| 2026-05-05 00:49 | 28.54896 | -81.32733 | 116 ft | 9 kts | 328° |
| 2026-05-05 00:49 | 28.54897 | -81.32753 | 116 ft | 9 kts | 242° |
| 2026-05-05 00:50 | 28.54866 | -81.32830 | 116 ft | 13 kts | 246° |
| 2026-05-05 00:50 | 28.54822 | -81.32942 | 116 ft | 18 kts | 245° |
| 2026-05-05 00:50 | 28.54770 | -81.33071 | 116 ft | 17 kts | 245° |
| 2026-05-05 00:50 | 28.54728 | -81.33197 | 116 ft | 18 kts | 258° |
| 2026-05-05 00:51 | 28.54705 | -81.33335 | 116 ft | 17 kts | 259° |
| 2026-05-05 00:51 | 28.54682 | -81.33467 | 116 ft | 18 kts | 258° |
| 2026-05-05 00:51 | 28.54657 | -81.33616 | 116 ft | 19 kts | 259° |
| 2026-05-05 00:51 | 28.54670 | -81.33732 | 116 ft | 9 kts | 319° |
| 2026-05-05 00:52 | 28.54720 | -81.33787 | 116 ft | 11 kts | 315° |
| 2026-05-05 00:52 | 28.54773 | -81.33847 | 116 ft | 7 kts | 319° |
| 2026-05-05 00:52 | 28.54805 | -81.33825 | 116 ft | 9 kts | 43° |
| 2026-05-05 00:52 | 28.54810 | -81.33820 | 116 ft | 0 kts | 43° |
| 2026-05-05 00:53 | 28.54811 | -81.33820 | 116 ft | 0 kts | 43° |
| 2026-05-05 00:55 | 28.54811 | -81.33819 | 116 ft | 0 kts | 43° |
| 2026-05-05 01:03 | 28.54812 | -81.33819 | 116 ft | 0 kts | 43° |
| 2026-05-05 01:05 | 28.54812 | -81.33818 | 116 ft | 0 kts | 43° |